SYRK1: Arkansas R at Syracuse, KS

Data processed at Fri Jan 05 2018 23:28


All information presented herein is the property of the government of the United States of America and may be revised or deleted at any time without prior notice.
Dissemination of this information without the expressed written consent of the Public Affairs Office, Tulsa District U.S. Army Corps of Engineers is strictly prohibited.
These data are gathered electronically and, as presented, have not undergone any form of quality control. These data are not guaranteed to be valid or correct.
Go to home page.
Go to station list.

Upstream stations:


Previous Day
Next Day
Current Day
    
SHEF ID:       SYRK1     ARKANSAS R AT SYRACUSE, KS
STATION TYPE:  

               PRECIP     STAGE  RIV-FLOW  BAT-LOAD
                   in        ft       cfs      volt
              Ccp-Rev   Ccp-Rev   Ccp-Rev   Ccp-Rev
(US/Central)
01/03 00:00      0.00      5.86       350     12.60
01/03 01:00      0.00      5.90       358     12.60
01/03 02:00      0.00      5.93       364     12.60
01/03 03:00      0.00      5.96       370     12.54
01/03 04:00      0.00      5.98       374     12.54
01/03 05:00      0.00      5.99       375     12.54
01/03 06:00      0.00      6.01       379     12.54
01/03 07:00      0.00      6.01       379     12.48
01/03 08:00      0.00      6.02       381     12.48
01/03 09:00      0.00      6.03       383     12.48
01/03 10:00      0.00      6.03       383     13.53
01/03 11:00      0.00      6.04       385     13.48
01/03 12:00      0.00      6.04       385     13.53
01/03 13:00      0.00      6.04       385     13.59
01/03 14:00      0.00      6.05       387     13.48
01/03 15:00      0.00      6.05       387     13.42
01/03 16:00      0.00      6.07       392     13.36
01/03 17:00      0.00      6.06       390     13.07
01/03 18:00      0.00      6.05       387     12.89
01/03 19:00      0.00      6.05       387     12.83
01/03 20:00      0.00      6.06       390     12.77
01/03 21:00      0.00      6.08       394     12.71
01/03 22:00      0.00      6.13       404     12.13
01/03 23:00      0.00      6.17       412     12.65